Time,TemperatureF,DewpointF,PressureIn,WindDirection,WindDirectionDegrees,WindSpeedMPH,WindSpeedGustMPH,Humidity,HourlyPrecipIn,Conditions,Clouds,dailyrainin,SoftwareType,DateUTC
2013-10-01 00:03:00,59.3,36.2,29.92,SW,229,2.3,2.3,42,0.00,CLR,,0.00,WeatherDisplay:10.37,2013-10-01 07:03:00,
2013-10-01 00:08:00,59.3,36.8,29.92,SW,229,2.3,2.3,43,0.00,CLR,,0.00,WeatherDisplay:10.37,2013-10-01 07:08:00,
2013-10-01 00:13:00,59.8,37.2,29.93,WNW,294,2.3,2.3,43,0.00,CLR,,0.00,WeatherDisplay:10.37,2013-10-01 07:13:00,
2013-10-01 00:18:00,60.5,37.9,29.92,WNW,294,0.0,0.0,43,0.00,CLR,,0.00,WeatherDisplay:10.37,2013-10-01 07:18:00,
2013-10-01 00:23:00,61.0,38.3,29.92,WNW,294,1.2,0.0,43,0.00,CLR,,0.00,WeatherDisplay:10.37,2013-10-01 07:23:00,
2013-10-01 00:28:00,61.3,38.6,29.92,WNW,294,0.0,0.0,43,0.00,CLR,,0.00,WeatherDisplay:10.37,2013-10-01 07:28:00,
2013-10-01 00:33:00,61.2,38.5,29.92,WNW,294,0.0,0.0,43,0.00,CLR,,0.00,WeatherDisplay:10.37,2013-10-01 07:33:00,
2013-10-01 00:38:00,61.1,38.4,29.92,WNW,294,0.0,0.0,43,0.00,CLR,,0.00,WeatherDisplay:10.37,2013-10-01 07:38:00,
2013-10-01 00:43:00,61.1,38.4,29.92,WNW,294,0.0,0.0,43,0.00,CLR,,0.00,WeatherDisplay:10.37,2013-10-01 07:43:00,
2013-10-01 00:48:00,61.4,39.9,29.92,WNW,294,1.2,0.0,45,0.00,CLR,,0.00,WeatherDisplay:10.37,2013-10-01 07:48:00,
2013-10-01 00:53:00,61.7,39.6,29.92,WNW,294,1.2,1.2,44,0.00,CLR,,0.00,WeatherDisplay:10.37,2013-10-01 07:53:00,
2013-10-01 00:58:00,61.7,39.6,29.92,WNW,294,2.3,2.3,44,0.00,CLR,,0.00,WeatherDisplay:10.37,2013-10-01 07:58:00,
2013-10-01 01:03:00,61.3,38.6,29.92,WNW,294,0.0,0.0,43,0.00,CLR,,0.00,WeatherDisplay:10.37,2013-10-01 08:03:00,
2013-10-01 01:08:00,61.1,39.0,29.92,WNW,294,0.0,0.9,44,0.00,CLR,,0.00,WeatherDisplay:10.37,2013-10-01 08:08:00,
2013-10-01 01:13:00,61.2,37.9,29.92,WNW,294,0.0,0.0,42,0.00,CLR,,0.00,WeatherDisplay:10.37,2013-10-01 08:13:00,
2013-10-01 01:19:00,61.0,38.9,29.92,WNW,294,3.5,3.5,44,0.00,CLR,,0.00,WeatherDisplay:10.37,2013-10-01 08:19:00,
2013-10-01 01:24:00,60.8,38.7,29.92,NE,49,0.0,0.0,44,0.00,CLR,,0.00,WeatherDisplay:10.37,2013-10-01 08:24:00,
2013-10-01 01:29:00,60.6,38.6,29.93,NE,46,0.0,0.0,44,0.00,CLR,,0.00,WeatherDisplay:10.37,2013-10-01 08:29:00,
2013-10-01 01:34:00,60.1,38.1,29.93,NE,46,0.0,0.0,44,0.00,CLR,,0.00,WeatherDisplay:10.37,2013-10-01 08:34:00,
2013-10-01 01:39:00,59.8,37.2,29.92,NE,46,0.0,0.0,43,0.00,CLR,,0.00,WeatherDisplay:10.37,2013-10-01 08:39:00,
2013-10-01 01:44:00,59.6,37.6,29.93,NE,46,0.0,0.0,44,0.00,CLR,,0.00,WeatherDisplay:10.37,2013-10-01 08:44:00,
2013-10-01 01:49:00,59.5,38.1,29.93,NE,46,0.0,0.0,45,0.00,CLR,,0.00,WeatherDisplay:10.37,2013-10-01 08:49:00,
2013-10-01 01:54:00,59.2,37.9,29.93,NE,46,0.0,0.0,45,0.00,CLR,,0.00,WeatherDisplay:10.37,2013-10-01 08:54:00,
2013-10-01 01:59:00,59.0,37.7,29.93,NE,46,0.0,0.0,45,0.00,CLR,,0.00,WeatherDisplay:10.37,2013-10-01 08:59:00,
2013-10-01 02:04:00,58.7,37.4,29.93,NE,46,0.0,0.0,45,0.00,CLR,,0.00,WeatherDisplay:10.37,2013-10-01 09:04:00,
2013-10-01 02:09:00,58.5,37.8,29.93,NE,46,0.0,0.0,46,0.00,CLR,,0.00,WeatherDisplay:10.37,2013-10-01 09:09:00,
2013-10-01 02:14:00,58.3,37.6,29.93,NE,46,0.0,0.0,46,0.00,CLR,,0.00,WeatherDisplay:10.37,2013-10-01 09:14:00,
2013-10-01 02:20:00,58.3,38.1,29.93,NE,46,0.0,0.0,47,0.00,CLR,,0.00,WeatherDisplay:10.37,2013-10-01 09:20:00,
2013-10-01 02:25:00,58.3,37.6,29.92,NE,46,0.0,0.0,46,0.00,CLR,,0.00,WeatherDisplay:10.37,2013-10-01 09:25:00,
2013-10-01 02:30:00,58.3,37.6,29.93,NE,46,0.0,0.0,46,0.00,CLR,,0.00,WeatherDisplay:10.37,2013-10-01 09:30:00,
2013-10-01 02:35:00,57.9,37.2,29.92,NE,46,0.0,0.0,46,0.00,CLR,,0.00,WeatherDisplay:10.37,2013-10-01 09:35:00,
2013-10-01 02:40:00,57.6,37.5,29.92,ENE,72,0.0,0.0,47,0.00,CLR,,0.00,WeatherDisplay:10.37,2013-10-01 09:40:00,
2013-10-01 02:45:00,57.2,37.7,29.92,ENE,72,2.3,2.3,48,0.00,CLR,,0.00,WeatherDisplay:10.37,2013-10-01 09:45:00,
2013-10-01 02:50:00,56.6,36.6,29.92,South,186,3.5,3.5,47,0.00,CLR,,0.00,WeatherDisplay:10.37,2013-10-01 09:50:00,
2013-10-01 02:55:00,56.6,37.1,29.92,South,186,0.0,0.0,48,0.00,CLR,,0.00,WeatherDisplay:10.37,2013-10-01 09:55:00,
2013-10-01 03:00:00,56.5,37.0,29.91,South,186,0.0,0.0,48,0.00,CLR,,0.00,WeatherDisplay:10.37,2013-10-01 10:00:00,
2013-10-01 03:05:00,55.8,35.9,29.92,WSW,238,4.6,4.6,47,0.00,CLR,,0.00,WeatherDisplay:10.37,2013-10-01 10:05:00,
2013-10-01 03:10:00,55.1,35.2,29.92,WSW,238,3.5,3.5,47,0.00,CLR,,0.00,WeatherDisplay:10.37,2013-10-01 10:10:00,
2013-10-01 03:15:00,54.7,34.8,29.92,West,273,4.6,4.6,47,0.00,CLR,,0.00,WeatherDisplay:10.37,2013-10-01 10:15:00,
2013-10-01 03:20:00,55.3,34.9,29.92,West,273,3.5,3.5,46,0.00,CLR,,0.00,WeatherDisplay:10.37,2013-10-01 10:20:00,
2013-10-01 03:25:00,55.1,34.7,29.91,SW,231,3.5,3.5,46,0.00,CLR,,0.00,WeatherDisplay:10.37,2013-10-01 10:25:00,
2013-10-01 03:30:00,54.8,34.4,29.91,SW,231,0.0,0.0,46,0.00,CLR,,0.00,WeatherDisplay:10.37,2013-10-01 10:30:00,
2013-10-01 03:35:00,54.5,34.1,29.91,SW,231,0.0,0.0,46,0.00,CLR,,0.00,WeatherDisplay:10.37,2013-10-01 10:35:00,
2013-10-01 03:40:00,54.3,34.5,29.92,SW,230,0.0,0.0,47,0.00,CLR,,0.00,WeatherDisplay:10.37,2013-10-01 10:40:00,
2013-10-01 03:45:00,54.3,33.9,29.92,SW,231,0.0,0.0,46,0.00,CLR,,0.00,WeatherDisplay:10.37,2013-10-01 10:45:00,
2013-10-01 03:50:00,54.2,33.9,29.92,SW,231,0.0,0.0,46,0.00,CLR,,0.00,WeatherDisplay:10.37,2013-10-01 10:50:00,
2013-10-01 03:56:00,54.1,34.3,29.92,SW,231,2.3,2.3,47,0.00,CLR,,0.00,WeatherDisplay:10.37,2013-10-01 10:56:00,
2013-10-01 04:01:00,54.5,34.7,29.92,SW,231,0.0,0.0,47,0.00,CLR,,0.00,WeatherDisplay:10.37,2013-10-01 11:01:00,
2013-10-01 04:06:00,54.6,34.2,29.92,SW,231,1.2,1.2,46,0.00,CLR,,0.00,WeatherDisplay:10.37,2013-10-01 11:06:00,
2013-10-01 04:11:00,54.8,34.4,29.92,SW,231,0.0,0.0,46,0.00,CLR,,0.00,WeatherDisplay:10.37,2013-10-01 11:11:00,
2013-10-01 04:16:00,54.9,34.5,29.92,SW,230,0.0,0.0,46,0.00,CLR,,0.00,WeatherDisplay:10.37,2013-10-01 11:16:00,
2013-10-01 04:21:00,55.1,35.2,29.92,SW,230,0.0,0.0,47,0.00,CLR,,0.00,WeatherDisplay:10.37,2013-10-01 11:21:00,
2013-10-01 04:26:00,55.6,35.7,29.92,SW,230,0.0,0.0,47,0.00,CLR,,0.00,WeatherDisplay:10.37,2013-10-01 11:26:00,
2013-10-01 04:31:00,56.1,36.1,29.92,SW,231,0.0,0.0,47,0.00,CLR,,0.00,WeatherDisplay:10.37,2013-10-01 11:31:00,
2013-10-01 04:36:00,56.2,35.1,29.92,SW,231,0.0,0.0,45,0.00,CLR,,0.00,WeatherDisplay:10.37,2013-10-01 11:36:00,
2013-10-01 04:41:00,56.1,35.6,29.92,SW,230,0.0,0.0,46,0.00,CLR,,0.00,WeatherDisplay:10.37,2013-10-01 11:41:00,
2013-10-01 04:46:00,56.0,35.5,29.92,SW,230,0.0,0.0,46,0.00,CLR,,0.00,WeatherDisplay:10.37,2013-10-01 11:46:00,
2013-10-01 04:51:00,55.6,35.1,29.92,SW,230,0.0,0.0,46,0.00,CLR,,0.00,WeatherDisplay:10.37,2013-10-01 11:51:00,
2013-10-01 04:56:00,55.4,35.5,29.92,SW,231,0.0,0.0,47,0.00,CLR,,0.00,WeatherDisplay:10.37,2013-10-01 11:56:00,
2013-10-01 05:01:00,55.1,34.7,29.92,SW,231,0.0,0.0,46,0.00,CLR,,0.00,WeatherDisplay:10.37,2013-10-01 12:01:00,
2013-10-01 05:06:00,55.0,34.6,29.92,SW,230,0.0,0.0,46,0.00,CLR,,0.00,WeatherDisplay:10.37,2013-10-01 12:06:00,
2013-10-01 05:11:00,55.1,36.3,29.92,SW,231,0.0,0.0,49,0.00,CLR,,0.00,WeatherDisplay:10.37,2013-10-01 12:11:00,
2013-10-01 05:16:00,55.5,36.6,29.92,SW,230,0.0,0.0,49,0.00,CLR,,0.00,WeatherDisplay:10.37,2013-10-01 12:16:00,
2013-10-01 05:22:00,55.6,36.7,29.93,SW,230,0.0,0.0,49,0.00,CLR,,0.00,WeatherDisplay:10.37,2013-10-01 12:22:00,
2013-10-01 05:27:00,55.3,35.9,29.93,SW,231,0.0,0.0,48,0.00,CLR,,0.00,WeatherDisplay:10.37,2013-10-01 12:27:00,
2013-10-01 05:32:00,55.8,36.9,29.93,NW,311,3.5,3.5,49,0.00,CLR,,0.00,WeatherDisplay:10.37,2013-10-01 12:32:00,
2013-10-01 05:37:00,56.6,38.2,29.93,NW,316,4.0,4.0,50,0.00,CLR,,0.00,WeatherDisplay:10.37,2013-10-01 12:37:00,
2013-10-01 05:42:00,57.2,38.2,29.93,NW,315,2.3,2.3,49,0.00,CLR,,0.00,WeatherDisplay:10.37,2013-10-01 12:42:00,
2013-10-01 05:47:00,57.7,38.7,29.93,NW,315,2.3,2.3,49,0.00,CLR,,0.00,WeatherDisplay:10.37,2013-10-01 12:47:00,
2013-10-01 05:52:00,57.9,38.8,29.93,NW,316,0.0,0.0,49,0.00,CLR,,0.00,WeatherDisplay:10.37,2013-10-01 12:52:00,
2013-10-01 05:57:00,57.9,38.8,29.93,NW,316,0.0,0.0,49,0.00,CLR,,0.00,WeatherDisplay:10.37,2013-10-01 12:57:00,
2013-10-01 06:02:00,58.0,39.5,29.93,NW,316,0.0,0.0,50,0.00,CLR,,0.00,WeatherDisplay:10.37,2013-10-01 13:02:00,
2013-10-01 06:07:00,58.4,39.8,29.93,NW,317,0.0,0.0,50,0.00,CLR,,0.00,WeatherDisplay:10.37,2013-10-01 13:07:00,
2013-10-01 06:12:00,58.8,39.7,29.93,NW,317,0.0,0.0,49,0.00,CLR,,0.00,WeatherDisplay:10.37,2013-10-01 13:12:00,
2013-10-01 06:17:00,58.8,39.7,29.93,NW,317,0.0,0.0,49,0.00,CLR,,0.00,WeatherDisplay:10.37,2013-10-01 13:17:00,
2013-10-01 06:22:00,58.3,38.7,29.93,NW,317,2.3,2.3,48,0.00,CLR,,0.00,WeatherDisplay:10.37,2013-10-01 13:22:00,
2013-10-01 06:27:00,57.7,39.2,29.93,NW,317,3.0,3.0,50,0.00,CLR,,0.00,WeatherDisplay:10.37,2013-10-01 13:27:00,
2013-10-01 06:33:00,57.3,39.8,29.93,South,171,2.3,2.3,52,0.00,CLR,,0.00,WeatherDisplay:10.37,2013-10-01 13:33:00,
2013-10-01 06:38:00,57.0,39.5,29.93,South,171,2.3,2.3,52,0.00,CLR,,0.00,WeatherDisplay:10.37,2013-10-01 13:38:00,
2013-10-01 06:43:00,56.6,38.2,29.93,South,171,0.0,0.0,50,0.00,CLR,,0.00,WeatherDisplay:10.37,2013-10-01 13:43:00,
2013-10-01 06:48:00,56.6,39.2,29.93,South,171,0.0,0.0,52,0.00,CLR,,0.00,WeatherDisplay:10.37,2013-10-01 13:48:00,
2013-10-01 06:53:00,56.9,39.4,29.93,South,171,3.5,3.5,52,0.00,CLR,,0.00,WeatherDisplay:10.37,2013-10-01 13:53:00,
2013-10-01 06:58:00,57.3,39.8,29.93,South,171,0.0,0.0,52,0.00,CLR,,0.00,WeatherDisplay:10.37,2013-10-01 13:58:00,
2013-10-01 07:03:00,57.8,39.8,29.93,South,171,0.0,0.0,51,0.00,CLR,,0.00,WeatherDisplay:10.37,2013-10-01 14:03:00,
2013-10-01 07:08:00,57.7,38.7,29.93,SW,218,5.0,5.0,49,0.00,CLR,,0.00,WeatherDisplay:10.37,2013-10-01 14:08:00,
2013-10-01 07:13:00,55.9,36.5,29.94,WSW,242,3.5,3.5,48,0.00,CLR,,0.00,WeatherDisplay:10.37,2013-10-01 14:13:00,
2013-10-01 07:18:00,54.8,37.0,29.94,WSW,243,3.5,3.5,51,0.00,CLR,,0.00,WeatherDisplay:10.37,2013-10-01 14:18:00,
2013-10-01 07:23:00,54.9,38.1,29.94,WSW,243,0.0,0.0,53,0.00,CLR,,0.00,WeatherDisplay:10.37,2013-10-01 14:23:00,
2013-10-01 07:28:00,55.2,37.9,29.94,WSW,243,1.0,1.0,52,0.00,CLR,,0.00,WeatherDisplay:10.37,2013-10-01 14:28:00,
2013-10-01 07:33:00,55.4,38.1,29.94,WSW,243,3.5,3.5,52,0.00,CLR,,0.00,WeatherDisplay:10.37,2013-10-01 14:33:00,
2013-10-01 07:38:00,55.8,37.9,29.94,WSW,242,2.3,2.3,51,0.00,CLR,,0.00,WeatherDisplay:10.37,2013-10-01 14:38:00,
2013-10-01 07:43:00,56.4,38.5,29.94,WSW,242,2.3,2.3,51,0.00,CLR,,0.00,WeatherDisplay:10.37,2013-10-01 14:43:00,
2013-10-01 07:49:00,57.2,38.7,29.95,WSW,243,2.3,2.3,50,0.00,CLR,,0.00,WeatherDisplay:10.37,2013-10-01 14:49:00,
2013-10-01 07:54:00,57.9,38.8,29.95,WSW,242,2.3,2.3,49,0.00,CLR,,0.00,WeatherDisplay:10.37,2013-10-01 14:54:00,
2013-10-01 07:59:00,58.7,39.0,29.95,WSW,242,2.3,2.3,48,0.00,CLR,,0.00,WeatherDisplay:10.37,2013-10-01 14:59:00,
2013-10-01 08:04:00,59.6,39.9,29.95,WSW,242,3.0,3.0,48,0.00,CLR,,0.00,WeatherDisplay:10.37,2013-10-01 15:04:00,
2013-10-01 08:09:00,60.4,40.6,29.95,West,260,4.6,4.6,48,0.00,CLR,,0.00,WeatherDisplay:10.37,2013-10-01 15:09:00,
2013-10-01 08:14:00,61.0,40.6,29.95,West,260,4.0,4.0,47,0.00,CLR,,0.00,WeatherDisplay:10.37,2013-10-01 15:14:00,
2013-10-01 08:20:00,61.5,41.6,29.95,West,268,5.0,5.0,48,0.00,CLR,,0.00,WeatherDisplay:10.37,2013-10-01 15:20:00,
2013-10-01 08:25:00,62.0,41.5,29.95,West,273,4.6,4.6,47,0.00,CLR,,0.00,WeatherDisplay:10.37,2013-10-01 15:25:00,
2013-10-01 08:30:00,62.6,42.1,29.95,West,276,3.5,3.5,47,0.00,CLR,,0.00,WeatherDisplay:10.37,2013-10-01 15:30:00,
2013-10-01 08:35:00,63.2,42.1,29.95,WNW,296,4.6,4.6,46,0.00,CLR,,0.00,WeatherDisplay:10.37,2013-10-01 15:35:00,
2013-10-01 08:40:00,63.9,43.8,29.95,WNW,294,6.9,6.9,48,0.00,CLR,,0.00,WeatherDisplay:10.37,2013-10-01 15:40:00,
2013-10-01 08:45:00,64.7,44.5,29.95,WNW,291,6.0,6.0,48,0.00,CLR,,0.00,WeatherDisplay:10.37,2013-10-01 15:45:00,
2013-10-01 08:50:00,65.4,45.2,29.95,WNW,300,5.8,5.8,48,0.00,CLR,,0.00,WeatherDisplay:10.37,2013-10-01 15:50:00,
2013-10-01 08:55:00,66.1,45.3,29.95,WNW,297,6.0,6.0,47,0.00,CLR,,0.00,WeatherDisplay:10.37,2013-10-01 15:55:00,
2013-10-01 09:00:00,66.6,45.2,29.95,WNW,290,6.0,6.0,46,0.00,CLR,,0.00,WeatherDisplay:10.37,2013-10-01 16:00:00,
2013-10-01 09:05:00,67.2,45.1,29.95,WNW,293,3.5,3.5,45,0.00,CLR,,0.00,WeatherDisplay:10.37,2013-10-01 16:05:00,
2013-10-01 09:10:00,67.8,44.5,29.95,WNW,293,5.8,5.8,43,0.00,CLR,,0.00,WeatherDisplay:10.37,2013-10-01 16:10:00,
2013-10-01 09:15:00,68.3,44.9,29.95,NW,304,5.8,5.8,43,0.00,CLR,,0.00,WeatherDisplay:10.37,2013-10-01 16:15:00,
2013-10-01 09:20:00,68.7,44.0,29.95,West,277,3.5,3.5,41,0.00,CLR,,0.00,WeatherDisplay:10.37,2013-10-01 16:20:00,
2013-10-01 09:26:00,69.4,44.0,29.95,WNW,295,5.0,5.0,40,0.00,CLR,,0.00,WeatherDisplay:10.37,2013-10-01 16:26:00,
2013-10-01 09:31:00,69.9,43.8,29.95,WNW,293,4.6,4.6,39,0.00,CLR,,0.00,WeatherDisplay:10.37,2013-10-01 16:31:00,
2013-10-01 09:36:00,70.6,43.7,29.95,WNW,294,5.8,5.8,38,0.00,CLR,,0.00,WeatherDisplay:10.37,2013-10-01 16:36:00,
2013-10-01 09:41:00,71.1,44.2,29.95,West,275,3.5,3.5,38,0.00,CLR,,0.00,WeatherDisplay:10.37,2013-10-01 16:41:00,
2013-10-01 09:46:00,71.8,44.8,29.95,West,275,2.3,2.3,38,0.00,CLR,,0.00,WeatherDisplay:10.37,2013-10-01 16:46:00,
2013-10-01 09:51:00,72.6,44.1,29.95,West,281,5.8,5.8,36,0.00,CLR,,0.00,WeatherDisplay:10.37,2013-10-01 16:51:00,
2013-10-01 09:57:00,73.4,43.3,29.95,WNW,287,6.9,6.9,34,0.00,CLR,,0.00,WeatherDisplay:10.37,2013-10-01 16:57:00,
2013-10-01 10:02:00,73.6,44.2,29.95,WSW,250,4.6,4.6,35,0.00,CLR,,0.00,WeatherDisplay:10.37,2013-10-01 17:02:00,
2013-10-01 10:07:00,74.1,43.9,29.94,SW,234,6.9,6.9,34,0.00,CLR,,0.00,WeatherDisplay:10.37,2013-10-01 17:07:00,
2013-10-01 10:12:00,74.8,43.8,29.95,West,267,6.9,6.9,33,0.00,CLR,,0.00,WeatherDisplay:10.37,2013-10-01 17:12:00,
2013-10-01 10:17:00,75.4,44.3,29.94,West,268,4.0,4.0,33,0.00,CLR,,0.00,WeatherDisplay:10.37,2013-10-01 17:17:00,
2013-10-01 10:22:00,75.7,43.7,29.94,WSW,238,5.8,5.8,32,0.00,CLR,,0.00,WeatherDisplay:10.37,2013-10-01 17:22:00,
2013-10-01 10:27:00,76.1,44.1,29.94,WSW,238,2.0,2.0,32,0.00,CLR,,0.00,WeatherDisplay:10.37,2013-10-01 17:27:00,
2013-10-01 10:32:00,76.5,43.6,29.94,NW,318,3.5,3.5,31,0.00,CLR,,0.00,WeatherDisplay:10.37,2013-10-01 17:32:00,
2013-10-01 10:37:00,76.9,43.1,29.94,NW,314,3.5,3.5,30,0.00,CLR,,0.00,WeatherDisplay:10.37,2013-10-01 17:37:00,
2013-10-01 10:42:00,77.5,41.8,29.94,SSW,211,4.6,4.6,28,0.00,CLR,,0.00,WeatherDisplay:10.37,2013-10-01 17:42:00,
2013-10-01 10:48:00,78.5,41.7,29.94,SW,233,11.5,11.5,27,0.00,CLR,,0.00,WeatherDisplay:10.37,2013-10-01 17:48:00,
2013-10-01 10:53:00,78.9,43.0,29.93,West,269,9.2,9.2,28,0.00,CLR,,0.00,WeatherDisplay:10.37,2013-10-01 17:53:00,
2013-10-01 10:58:00,79.1,42.2,29.93,WSW,244,10.4,10.4,27,0.00,CLR,,0.00,WeatherDisplay:10.37,2013-10-01 17:58:00,
2013-10-01 11:03:00,79.5,43.5,29.93,SSW,206,4.6,4.6,28,0.00,CLR,,0.00,WeatherDisplay:10.37,2013-10-01 18:03:00,
2013-10-01 11:09:00,80.0,43.0,29.93,WSW,245,6.9,6.9,27,0.00,CLR,,0.00,WeatherDisplay:10.37,2013-10-01 18:09:00,
2013-10-01 11:14:00,80.4,43.3,29.93,WNW,282,5.8,5.8,27,0.00,CLR,,0.00,WeatherDisplay:10.37,2013-10-01 18:14:00,
2013-10-01 11:19:00,80.7,42.6,29.93,WNW,291,13.0,13.0,26,0.00,CLR,,0.00,WeatherDisplay:10.37,2013-10-01 18:19:00,
2013-10-01 11:24:00,81.0,42.9,29.93,WNW,286,11.5,11.5,26,0.00,CLR,,0.00,WeatherDisplay:10.37,2013-10-01 18:24:00,
2013-10-01 11:29:00,81.6,43.4,29.92,West,280,10.4,10.4,26,0.00,CLR,,0.00,WeatherDisplay:10.37,2013-10-01 18:29:00,
2013-10-01 11:34:00,81.9,43.6,29.92,WSW,242,7.0,7.0,26,0.00,CLR,,0.00,WeatherDisplay:10.37,2013-10-01 18:34:00,
2013-10-01 11:39:00,82.5,43.1,29.92,WNW,287,12.7,12.7,25,0.00,CLR,,0.00,WeatherDisplay:10.37,2013-10-01 18:39:00,
2013-10-01 11:44:00,82.7,43.3,29.92,West,269,13.8,13.8,25,0.00,CLR,,0.00,WeatherDisplay:10.37,2013-10-01 18:44:00,
2013-10-01 11:49:00,82.9,43.5,29.92,West,271,13.0,13.0,25,0.00,CLR,,0.00,WeatherDisplay:10.37,2013-10-01 18:49:00,
2013-10-01 11:54:00,82.6,43.2,29.92,West,279,9.2,9.2,25,0.00,CLR,,0.00,WeatherDisplay:10.37,2013-10-01 18:54:00,
2013-10-01 11:59:00,82.9,43.5,29.92,SW,230,12.0,12.0,25,0.00,CLR,,0.00,WeatherDisplay:10.37,2013-10-01 18:59:00,
2013-10-01 12:04:00,83.7,44.1,29.92,WSW,246,10.4,10.4,25,0.00,CLR,,0.00,WeatherDisplay:10.37,2013-10-01 19:04:00,
2013-10-01 12:09:00,84.0,43.3,29.92,West,271,13.8,13.8,24,0.00,CLR,,0.00,WeatherDisplay:10.37,2013-10-01 19:09:00,
2013-10-01 12:14:00,84.6,42.7,29.92,SW,226,9.0,9.0,23,0.00,CLR,,0.00,WeatherDisplay:10.37,2013-10-01 19:14:00,
2013-10-01 12:19:00,84.8,41.7,29.91,WSW,245,11.5,11.5,22,0.00,CLR,,0.00,WeatherDisplay:10.37,2013-10-01 19:19:00,
2013-10-01 12:24:00,85.1,42.0,29.91,WSW,253,13.8,13.8,22,0.00,CLR,,0.00,WeatherDisplay:10.37,2013-10-01 19:24:00,
2013-10-01 12:29:00,85.1,42.0,29.91,West,262,12.7,12.7,22,0.00,CLR,,0.00,WeatherDisplay:10.37,2013-10-01 19:29:00,
2013-10-01 12:35:00,85.5,41.1,29.91,SW,227,12.7,12.7,21,0.00,CLR,,0.00,WeatherDisplay:10.37,2013-10-01 19:35:00,
2013-10-01 12:40:00,85.8,41.3,29.90,WSW,240,10.4,10.4,21,0.00,CLR,,0.00,WeatherDisplay:10.37,2013-10-01 19:40:00,
2013-10-01 12:45:00,86.2,42.9,29.90,WSW,245,17.3,17.3,22,0.00,CLR,,0.00,WeatherDisplay:10.37,2013-10-01 19:45:00,
2013-10-01 12:50:00,86.0,42.7,29.90,SW,221,16.1,16.1,22,0.00,CLR,,0.00,WeatherDisplay:10.37,2013-10-01 19:50:00,
2013-10-01 12:55:00,86.5,44.3,29.90,WSW,244,16.1,16.1,23,0.00,CLR,,0.00,WeatherDisplay:10.37,2013-10-01 19:55:00,
2013-10-01 13:01:00,86.4,44.2,29.90,SW,226,16.1,16.1,23,0.00,CLR,,0.00,WeatherDisplay:10.37,2013-10-01 20:01:00,
2013-10-01 13:06:00,86.6,44.4,29.90,WSW,250,15.0,15.0,23,0.00,CLR,,0.00,WeatherDisplay:10.37,2013-10-01 20:06:00,
2013-10-01 13:11:00,87.1,44.8,29.89,West,266,17.3,17.3,23,0.00,CLR,,0.00,WeatherDisplay:10.37,2013-10-01 20:11:00,
2013-10-01 13:17:00,87.2,43.7,29.89,SW,224,20.7,20.7,22,0.00,CLR,,0.00,WeatherDisplay:10.37,2013-10-01 20:17:00,
2013-10-01 13:22:00,87.3,43.8,29.89,SSW,197,17.3,17.3,22,0.00,CLR,,0.00,WeatherDisplay:10.37,2013-10-01 20:22:00,
2013-10-01 13:27:00,87.3,45.0,29.88,SW,223,19.6,19.6,23,0.00,CLR,,0.00,WeatherDisplay:10.37,2013-10-01 20:27:00,
2013-10-01 13:32:00,87.8,44.2,29.88,WSW,248,20.0,20.0,22,0.00,CLR,,0.00,WeatherDisplay:10.37,2013-10-01 20:32:00,
2013-10-01 13:37:00,87.6,44.1,29.88,WSW,241,26.5,26.5,22,0.00,CLR,,0.00,WeatherDisplay:10.37,2013-10-01 20:37:00,
2013-10-01 13:42:00,87.8,43.0,29.88,SW,233,24.2,24.2,21,0.00,CLR,,0.00,WeatherDisplay:10.37,2013-10-01 20:42:00,
2013-10-01 13:47:00,87.4,42.7,29.88,WSW,238,24.2,24.2,21,0.00,CLR,,0.00,WeatherDisplay:10.37,2013-10-01 20:47:00,
2013-10-01 13:52:00,87.8,43.0,29.88,WSW,242,21.9,21.9,21,0.00,CLR,,0.00,WeatherDisplay:10.37,2013-10-01 20:52:00,
2013-10-01 13:57:00,87.5,42.8,29.88,WSW,239,23.0,23.0,21,0.00,CLR,,0.00,WeatherDisplay:10.37,2013-10-01 20:57:00,
2013-10-01 14:02:00,87.8,41.7,29.88,WSW,246,20.7,20.7,20,0.00,CLR,,0.00,WeatherDisplay:10.37,2013-10-01 21:02:00,
2013-10-01 14:07:00,87.8,41.7,29.88,WSW,249,20.7,20.7,20,0.00,CLR,,0.00,WeatherDisplay:10.37,2013-10-01 21:07:00,
2013-10-01 14:12:00,87.9,41.8,29.88,WNW,296,25.3,25.3,20,0.00,CLR,,0.00,WeatherDisplay:10.37,2013-10-01 21:12:00,
2013-10-01 14:17:00,87.8,41.7,29.88,SW,229,19.6,19.6,20,0.00,CLR,,0.00,WeatherDisplay:10.37,2013-10-01 21:17:00,
2013-10-01 14:22:00,87.9,41.8,29.88,West,263,20.7,20.7,20,0.00,CLR,,0.00,WeatherDisplay:10.37,2013-10-01 21:22:00,
2013-10-01 14:28:00,88.1,42.0,29.87,WSW,242,19.6,19.6,20,0.00,CLR,,0.00,WeatherDisplay:10.37,2013-10-01 21:28:00,
2013-10-01 14:33:00,87.7,41.6,29.87,West,259,20.7,20.7,20,0.00,CLR,,0.00,WeatherDisplay:10.37,2013-10-01 21:33:00,
2013-10-01 14:38:00,87.5,41.5,29.87,WSW,248,20.7,20.7,20,0.00,CLR,,0.00,WeatherDisplay:10.37,2013-10-01 21:38:00,
2013-10-01 14:43:00,87.1,41.2,29.87,WSW,242,23.0,23.0,20,0.00,CLR,,0.00,WeatherDisplay:10.37,2013-10-01 21:43:00,
2013-10-01 14:48:00,87.0,42.3,29.87,WSW,254,17.3,17.3,21,0.00,CLR,,0.00,WeatherDisplay:10.37,2013-10-01 21:48:00,
2013-10-01 14:53:00,87.4,41.4,29.87,SW,231,17.3,17.3,20,0.00,CLR,,0.00,WeatherDisplay:10.37,2013-10-01 21:53:00,
2013-10-01 14:58:00,87.5,41.5,29.87,SW,226,23.0,23.0,20,0.00,CLR,,0.00,WeatherDisplay:10.37,2013-10-01 21:58:00,
2013-10-01 15:03:00,87.1,41.2,29.87,SW,222,19.6,19.6,20,0.00,CLR,,0.00,WeatherDisplay:10.37,2013-10-01 22:03:00,
2013-10-01 15:08:00,87.2,39.9,29.87,WSW,252,21.9,21.9,19,0.00,CLR,,0.00,WeatherDisplay:10.37,2013-10-01 22:08:00,
2013-10-01 15:13:00,87.1,39.8,29.87,WSW,242,21.9,21.9,19,0.00,CLR,,0.00,WeatherDisplay:10.37,2013-10-01 22:13:00,
2013-10-01 15:18:00,87.4,40.1,29.86,SW,232,24.2,24.2,19,0.00,CLR,,0.00,WeatherDisplay:10.37,2013-10-01 22:18:00,
2013-10-01 15:23:00,87.1,41.2,29.87,SSW,212,24.2,24.2,20,0.00,CLR,,0.00,WeatherDisplay:10.37,2013-10-01 22:23:00,
2013-10-01 15:28:00,87.0,39.7,29.87,WSW,242,25.3,25.3,19,0.00,CLR,,0.00,WeatherDisplay:10.37,2013-10-01 22:28:00,
2013-10-01 15:33:00,87.1,39.8,29.86,West,271,25.3,25.3,19,0.00,CLR,,0.00,WeatherDisplay:10.37,2013-10-01 22:33:00,
2013-10-01 15:39:00,86.8,39.6,29.86,SW,236,21.9,21.9,19,0.00,CLR,,0.00,WeatherDisplay:10.37,2013-10-01 22:39:00,
2013-10-01 15:44:00,86.5,40.7,29.86,SW,222,26.5,26.5,20,0.00,CLR,,0.00,WeatherDisplay:10.37,2013-10-01 22:44:00,
2013-10-01 15:49:00,86.3,41.8,29.86,SSW,213,23.0,23.0,21,0.00,CLR,,0.00,WeatherDisplay:10.37,2013-10-01 22:49:00,
2013-10-01 15:54:00,86.4,41.8,29.86,SW,233,26.5,26.5,21,0.00,CLR,,0.00,WeatherDisplay:10.37,2013-10-01 22:54:00,
2013-10-01 15:59:00,86.1,41.6,29.86,West,268,25.0,25.0,21,0.00,CLR,,0.00,WeatherDisplay:10.37,2013-10-01 22:59:00,
2013-10-01 16:04:00,85.9,40.2,29.86,SSW,205,24.2,24.2,20,0.00,CLR,,0.00,WeatherDisplay:10.37,2013-10-01 23:04:00,
2013-10-01 16:09:00,85.7,41.3,29.86,SSW,202,21.9,21.9,21,0.00,CLR,,0.00,WeatherDisplay:10.37,2013-10-01 23:09:00,
2013-10-01 16:14:00,85.5,41.1,29.86,SW,225,19.6,19.6,21,0.00,CLR,,0.00,WeatherDisplay:10.37,2013-10-01 23:14:00,
2013-10-01 16:19:00,85.7,40.0,29.86,WSW,245,24.2,24.2,20,0.00,CLR,,0.00,WeatherDisplay:10.37,2013-10-01 23:19:00,
2013-10-01 16:20:00,85.6,39.9,29.86,SW,236,26.5,26.5,20,0.00,CLR,,0.00,WeatherDisplay:10.37,2013-10-01 23:20:00,
2013-10-01 16:25:00,85.4,41.0,29.86,SW,235,21.9,21.9,21,0.00,CLR,,0.00,WeatherDisplay:10.37,2013-10-01 23:25:00,
2013-10-01 16:30:00,85.4,41.0,29.86,SW,236,25.3,25.3,21,0.00,CLR,,0.00,WeatherDisplay:10.37,2013-10-01 23:30:00,
2013-10-01 16:35:00,85.3,40.9,29.86,SW,229,23.0,23.0,21,0.00,CLR,,0.00,WeatherDisplay:10.37,2013-10-01 23:35:00,
2013-10-01 16:40:00,85.0,40.7,29.86,SW,215,25.3,25.3,21,0.00,CLR,,0.00,WeatherDisplay:10.37,2013-10-01 23:40:00,
2013-10-01 16:45:00,84.4,41.4,29.86,SW,221,21.9,21.9,22,0.00,CLR,,0.00,WeatherDisplay:10.37,2013-10-01 23:45:00,
2013-10-01 16:50:00,84.2,42.4,29.86,SSW,213,25.3,25.3,23,0.00,CLR,,0.00,WeatherDisplay:10.37,2013-10-01 23:50:00,
2013-10-01 16:55:00,83.9,42.1,29.86,SW,232,23.0,23.0,23,0.00,CLR,,0.00,WeatherDisplay:10.37,2013-10-01 23:55:00,
2013-10-01 17:00:00,83.6,43.0,29.86,SW,232,18.4,18.4,24,0.00,CLR,,0.00,WeatherDisplay:10.37,2013-10-02 00:00:00,
2013-10-01 17:05:00,83.3,42.7,29.86,WSW,246,19.6,19.6,24,0.00,CLR,,0.00,WeatherDisplay:10.37,2013-10-02 00:05:00,
2013-10-01 17:10:00,82.9,43.5,29.87,WSW,237,20.0,20.0,25,0.00,CLR,,0.00,WeatherDisplay:10.37,2013-10-02 00:10:00,
2013-10-01 17:15:00,82.5,43.1,29.87,West,265,19.6,19.6,25,0.00,CLR,,0.00,WeatherDisplay:10.37,2013-10-02 00:15:00,
2013-10-01 17:20:00,82.2,42.9,29.87,SW,236,23.0,23.0,25,0.00,CLR,,0.00,WeatherDisplay:10.37,2013-10-02 00:20:00,
2013-10-01 17:25:00,81.6,43.4,29.87,SW,230,17.0,17.0,26,0.00,CLR,,0.00,WeatherDisplay:10.37,2013-10-02 00:25:00,
2013-10-01 17:30:00,81.6,43.4,29.87,SSW,211,19.6,19.6,26,0.00,CLR,,0.00,WeatherDisplay:10.37,2013-10-02 00:30:00,
2013-10-01 17:35:00,81.2,43.0,29.87,SW,231,19.6,19.6,26,0.00,CLR,,0.00,WeatherDisplay:10.37,2013-10-02 00:35:00,
2013-10-01 17:40:00,80.9,43.8,29.87,SW,236,23.0,23.0,27,0.00,CLR,,0.00,WeatherDisplay:10.37,2013-10-02 00:40:00,
2013-10-01 17:45:00,80.6,43.5,29.87,WSW,244,21.9,21.9,27,0.00,CLR,,0.00,WeatherDisplay:10.37,2013-10-02 00:45:00,
2013-10-01 17:50:00,80.3,44.2,29.87,WSW,238,13.8,13.8,28,0.00,CLR,,0.00,WeatherDisplay:10.37,2013-10-02 00:50:00,
2013-10-01 17:55:00,80.1,43.1,29.87,WSW,238,25.3,25.3,27,0.00,CLR,,0.00,WeatherDisplay:10.37,2013-10-02 00:55:00,
2013-10-01 18:00:00,79.7,43.7,29.88,WSW,244,18.0,18.0,28,0.00,CLR,,0.00,WeatherDisplay:10.37,2013-10-02 01:00:00,
2013-10-01 18:05:00,79.2,44.2,29.88,SW,236,18.4,18.4,29,0.00,CLR,,0.00,WeatherDisplay:10.37,2013-10-02 01:05:00,
2013-10-01 18:10:00,78.7,43.8,29.87,SW,232,24.2,24.2,29,0.00,CLR,,0.00,WeatherDisplay:10.37,2013-10-02 01:10:00,
2013-10-01 18:15:00,78.0,44.0,29.88,SSW,209,18.4,18.4,30,0.00,CLR,,0.00,WeatherDisplay:10.37,2013-10-02 01:15:00,
2013-10-01 18:20:00,77.6,43.7,29.88,WSW,242,16.1,16.1,30,0.00,CLR,,0.00,WeatherDisplay:10.37,2013-10-02 01:20:00,
2013-10-01 18:25:00,77.4,43.5,29.88,SW,231,16.1,16.1,30,0.00,CLR,,0.00,WeatherDisplay:10.37,2013-10-02 01:25:00,
2013-10-01 18:30:00,76.9,43.1,29.88,SW,223,23.0,23.0,30,0.00,CLR,,0.00,WeatherDisplay:10.37,2013-10-02 01:30:00,
2013-10-01 18:35:00,76.4,42.7,29.88,SW,236,18.4,18.4,30,0.00,CLR,,0.00,WeatherDisplay:10.37,2013-10-02 01:35:00,
2013-10-01 18:40:00,76.0,43.2,29.88,WSW,238,17.3,17.3,31,0.00,CLR,,0.00,WeatherDisplay:10.37,2013-10-02 01:40:00,
2013-10-01 18:45:00,75.6,43.7,29.88,SW,223,12.7,12.7,32,0.00,CLR,,0.00,WeatherDisplay:10.37,2013-10-02 01:45:00,
2013-10-01 18:50:00,75.2,42.5,29.88,WSW,254,12.7,12.7,31,0.00,CLR,,0.00,WeatherDisplay:10.37,2013-10-02 01:50:00,
2013-10-01 18:55:00,74.8,42.1,29.88,West,263,15.0,15.0,31,0.00,CLR,,0.00,WeatherDisplay:10.37,2013-10-02 01:55:00,
2013-10-01 19:00:00,74.3,41.7,29.89,WSW,240,13.8,13.8,31,0.00,CLR,,0.00,WeatherDisplay:10.37,2013-10-02 02:00:00,
2013-10-01 19:05:00,73.7,42.0,29.89,SSW,211,15.0,15.0,32,0.00,CLR,,0.00,WeatherDisplay:10.37,2013-10-02 02:05:00,
2013-10-01 19:10:00,73.2,41.6,29.89,West,271,10.4,10.4,32,0.00,CLR,,0.00,WeatherDisplay:10.37,2013-10-02 02:10:00,
2013-10-01 19:15:00,72.6,41.8,29.89,WSW,238,15.0,15.0,33,0.00,CLR,,0.00,WeatherDisplay:10.37,2013-10-02 02:15:00,
2013-10-01 19:20:00,72.3,41.6,29.89,SW,225,18.4,18.4,33,0.00,CLR,,0.00,WeatherDisplay:10.37,2013-10-02 02:20:00,
2013-10-01 19:25:00,72.0,42.1,29.89,WSW,252,11.5,11.5,34,0.00,CLR,,0.00,WeatherDisplay:10.37,2013-10-02 02:25:00,
2013-10-01 19:30:00,71.7,42.6,29.89,WSW,246,13.8,13.8,35,0.00,CLR,,0.00,WeatherDisplay:10.37,2013-10-02 02:30:00,
2013-10-01 19:35:00,71.3,43.7,29.90,SW,232,13.8,13.8,37,0.00,CLR,,0.00,WeatherDisplay:10.37,2013-10-02 02:35:00,
2013-10-01 19:40:00,70.9,44.7,29.89,WSW,242,18.4,18.4,39,0.00,CLR,,0.00,WeatherDisplay:10.37,2013-10-02 02:40:00,
2013-10-01 19:45:00,70.6,45.7,29.90,West,266,23.0,23.0,41,0.00,CLR,,0.00,WeatherDisplay:10.37,2013-10-02 02:45:00,
2013-10-01 19:50:00,70.3,46.1,29.89,SSW,211,18.4,18.4,42,0.00,CLR,,0.00,WeatherDisplay:10.37,2013-10-02 02:50:00,
2013-10-01 19:55:00,69.9,47.0,29.90,WSW,246,18.0,18.0,44,0.00,CLR,,0.00,WeatherDisplay:10.37,2013-10-02 02:55:00,
2013-10-01 20:00:00,69.7,48.0,29.90,SW,220,20.7,20.7,46,0.00,CLR,,0.00,WeatherDisplay:10.37,2013-10-02 03:00:00,
2013-10-01 20:05:00,69.5,47.8,29.90,WSW,249,21.9,21.9,46,0.00,CLR,,0.00,WeatherDisplay:10.37,2013-10-02 03:05:00,
2013-10-01 20:10:00,69.4,48.3,29.90,West,279,21.9,21.9,47,0.00,CLR,,0.00,WeatherDisplay:10.37,2013-10-02 03:10:00,
2013-10-01 20:15:00,69.3,48.2,29.90,WSW,248,20.7,20.7,47,0.00,CLR,,0.00,WeatherDisplay:10.37,2013-10-02 03:15:00,
2013-10-01 20:20:00,69.1,48.0,29.90,WSW,253,19.6,19.6,47,0.00,CLR,,0.00,WeatherDisplay:10.37,2013-10-02 03:20:00,
2013-10-01 20:25:00,69.0,47.9,29.90,West,260,19.6,19.6,47,0.00,CLR,,0.00,WeatherDisplay:10.37,2013-10-02 03:25:00,
2013-10-01 20:30:00,68.9,47.8,29.91,West,275,18.4,18.4,47,0.00,CLR,,0.00,WeatherDisplay:10.37,2013-10-02 03:30:00,
2013-10-01 20:35:00,68.7,47.6,29.91,West,271,18.4,18.4,47,0.00,CLR,,0.00,WeatherDisplay:10.37,2013-10-02 03:35:00,
2013-10-01 20:40:00,68.5,48.0,29.91,West,280,16.1,16.1,48,0.00,CLR,,0.00,WeatherDisplay:10.37,2013-10-02 03:40:00,
2013-10-01 20:45:00,68.4,47.9,29.91,West,281,17.3,17.3,48,0.00,CLR,,0.00,WeatherDisplay:10.37,2013-10-02 03:45:00,
2013-10-01 20:50:00,68.3,47.8,29.91,WSW,255,17.3,17.3,48,0.00,CLR,,0.00,WeatherDisplay:10.37,2013-10-02 03:50:00,
2013-10-01 20:55:00,68.2,47.8,29.91,WSW,256,19.6,19.6,48,0.00,CLR,,0.00,WeatherDisplay:10.37,2013-10-02 03:55:00,
2013-10-01 21:00:00,68.1,47.7,29.91,WNW,284,18.4,18.4,48,0.00,CLR,,0.00,WeatherDisplay:10.37,2013-10-02 04:00:00,
2013-10-01 21:01:00,68.1,47.7,29.91,WSW,257,18.0,18.0,48,0.00,CLR,,0.00,WeatherDisplay:10.37,2013-10-02 04:01:00,
2013-10-01 21:02:00,68.1,47.7,29.91,WSW,255,19.6,19.6,48,0.00,CLR,,0.00,WeatherDisplay:10.37,2013-10-02 04:02:00,
2013-10-01 21:03:00,68.1,48.2,29.92,WNW,298,18.4,18.4,49,0.00,CLR,,0.00,WeatherDisplay:10.37,2013-10-02 04:03:00,
2013-10-01 21:09:00,67.9,48.6,29.92,WSW,253,17.3,17.3,50,0.00,CLR,,0.00,WeatherDisplay:10.37,2013-10-02 04:09:00,
2013-10-01 21:14:00,67.9,49.1,29.92,West,261,21.9,21.9,51,0.00,CLR,,0.00,WeatherDisplay:10.37,2013-10-02 04:14:00,
2013-10-01 21:19:00,67.8,49.0,29.92,SW,236,18.4,18.4,51,0.00,CLR,,0.00,WeatherDisplay:10.37,2013-10-02 04:19:00,
2013-10-01 21:24:00,67.7,48.9,29.92,West,269,21.9,21.9,51,0.00,CLR,,0.00,WeatherDisplay:10.37,2013-10-02 04:24:00,
2013-10-01 21:29:00,67.9,49.1,29.92,West,263,17.3,17.3,51,0.00,CLR,,0.00,WeatherDisplay:10.37,2013-10-02 04:29:00,
2013-10-01 21:34:00,67.8,49.0,29.92,West,275,19.6,19.6,51,0.00,CLR,,0.00,WeatherDisplay:10.37,2013-10-02 04:34:00,
2013-10-01 21:39:00,67.7,48.4,29.92,West,268,12.7,12.7,50,0.00,CLR,,0.00,WeatherDisplay:10.37,2013-10-02 04:39:00,
2013-10-01 21:44:00,67.5,48.2,29.92,WSW,256,12.0,12.0,50,0.00,CLR,,0.00,WeatherDisplay:10.37,2013-10-02 04:44:00,
2013-10-01 21:49:00,67.4,48.6,29.92,WSW,254,11.5,11.5,51,0.00,CLR,,0.00,WeatherDisplay:10.37,2013-10-02 04:49:00,
2013-10-01 21:54:00,67.2,48.5,29.92,West,265,11.5,11.5,51,0.00,CLR,,0.00,WeatherDisplay:10.37,2013-10-02 04:54:00,
2013-10-01 21:59:00,67.0,48.3,29.92,WSW,253,16.1,16.1,51,0.00,CLR,,0.00,WeatherDisplay:10.37,2013-10-02 04:59:00,
2013-10-01 22:04:00,66.8,48.1,29.92,WSW,254,11.5,11.5,51,0.00,CLR,,0.00,WeatherDisplay:10.37,2013-10-02 05:04:00,
2013-10-01 22:09:00,66.6,48.4,29.92,West,272,11.5,11.5,52,0.00,CLR,,0.00,WeatherDisplay:10.37,2013-10-02 05:09:00,
2013-10-01 22:14:00,66.4,48.2,29.92,WSW,254,11.5,11.5,52,0.00,CLR,,0.00,WeatherDisplay:10.37,2013-10-02 05:14:00,
2013-10-01 22:19:00,66.3,48.1,29.92,WSW,240,10.4,10.4,52,0.00,CLR,,0.00,WeatherDisplay:10.37,2013-10-02 05:19:00,
2013-10-01 22:24:00,66.2,48.6,29.92,West,261,12.7,12.7,53,0.00,CLR,,0.00,WeatherDisplay:10.37,2013-10-02 05:24:00,
2013-10-01 22:29:00,66.2,48.6,29.92,WSW,254,11.5,11.5,53,0.00,CLR,,0.00,WeatherDisplay:10.37,2013-10-02 05:29:00,
2013-10-01 22:34:00,66.2,48.6,29.92,SW,221,14.0,14.0,53,0.00,CLR,,0.00,WeatherDisplay:10.37,2013-10-02 05:34:00,
2013-10-01 22:39:00,66.2,48.6,29.92,SW,234,15.0,15.0,53,0.00,CLR,,0.00,WeatherDisplay:10.37,2013-10-02 05:39:00,
2013-10-01 22:44:00,66.1,48.5,29.92,WSW,240,18.0,18.0,53,0.00,CLR,,0.00,WeatherDisplay:10.37,2013-10-02 05:44:00,
2013-10-01 22:49:00,66.2,49.1,29.92,SW,226,17.3,17.3,54,0.00,CLR,,0.00,WeatherDisplay:10.37,2013-10-02 05:49:00,
2013-10-01 22:54:00,66.2,49.1,29.92,WSW,257,16.1,16.1,54,0.00,CLR,,0.00,WeatherDisplay:10.37,2013-10-02 05:54:00,
2013-10-01 22:59:00,66.1,49.0,29.92,WSW,239,11.5,11.5,54,0.00,CLR,,0.00,WeatherDisplay:10.37,2013-10-02 05:59:00,
2013-10-01 23:04:00,66.0,48.9,29.92,WSW,247,13.0,13.0,54,0.00,CLR,,0.00,WeatherDisplay:10.37,2013-10-02 06:04:00,
2013-10-01 23:09:00,65.9,48.8,29.92,WSW,242,13.8,13.8,54,0.00,CLR,,0.00,WeatherDisplay:10.37,2013-10-02 06:09:00,
2013-10-01 23:14:00,65.9,48.8,29.92,WSW,238,15.0,15.0,54,0.00,CLR,,0.00,WeatherDisplay:10.37,2013-10-02 06:14:00,
2013-10-01 23:19:00,65.8,48.7,29.92,WSW,248,12.7,12.7,54,0.00,CLR,,0.00,WeatherDisplay:10.37,2013-10-02 06:19:00,
2013-10-01 23:24:00,65.7,49.1,29.92,West,262,16.1,16.1,55,0.00,CLR,,0.00,WeatherDisplay:10.37,2013-10-02 06:24:00,
2013-10-01 23:29:00,65.7,48.6,29.92,West,263,16.1,16.1,54,0.00,CLR,,0.00,WeatherDisplay:10.37,2013-10-02 06:29:00,
2013-10-01 23:34:00,65.8,48.7,29.92,West,273,18.4,18.4,54,0.00,CLR,,0.00,WeatherDisplay:10.37,2013-10-02 06:34:00,
2013-10-01 23:39:00,65.7,48.6,29.92,WSW,242,13.8,13.8,54,0.00,CLR,,0.00,WeatherDisplay:10.37,2013-10-02 06:39:00,
2013-10-01 23:44:00,65.6,48.0,29.92,WSW,256,13.8,13.8,53,0.00,CLR,,0.00,WeatherDisplay:10.37,2013-10-02 06:44:00,
2013-10-01 23:49:00,65.5,47.9,29.92,WSW,247,12.7,12.7,53,0.00,CLR,,0.00,WeatherDisplay:10.37,2013-10-02 06:49:00,
2013-10-01 23:54:00,65.6,48.0,29.92,WSW,254,16.1,16.1,53,0.00,CLR,,0.00,WeatherDisplay:10.37,2013-10-02 06:54:00,
2013-10-01 23:59:00,65.6,48.0,29.92,WSW,252,15.0,15.0,53,0.00,CLR,,0.00,WeatherDisplay:10.37,2013-10-02 06:59:00,